Weather at Williams Ranch Airport [CLOSED]

Public forecast

Using degrees Fahrenheit for public forecast. Weather courtesy of forecast.io.

Closest aviation weather report (METAR) to Williams Ranch Airport

Closest report is Memorial Field, 27.3 nm (50.6 km) ENE. Retrieved 2022/05/22 22:53 UTC (15 minutes ago):

KHOT 222253Z AUTO 03006KT 10SM OVC020 17/12 A3020 RMK AO2 SLP224 T01670122

Closest aviation forecast (TAF) to Williams Ranch Airport

Closest forecast is Memorial Field, 27.3 nm (50.6 km) ENE. Retrieved 2022/05/22 18:22 UTC (5 hours ago):

TAF KHOT 221720Z 2218/2318 06008KT P6SM OVC008 FM222000 03007KT P6SM OVC015 FM230300 07008KT P6SM OVC035 FM231100 07004KT P6SM OVC025